Language selection

Weather shortcuts

Lake Nipigon: Past 24 Hour Conditions

 

Marathon Airport

05:00 AM EDT 13 June 2024
Disclaimer

This table is a summary of hourly weather conditions for the past 24 hours.
Please note that these observations might not always be representative of weather conditions over their associated marine area.

Date / Time
(EDT)
Wind(knots) Conditions Visibility(km) Pressure(kPa) Air tempC) Relative humidity(%) Dew pointC)
13 June 2024
5:00 NNW 2 N/A N/A 100.3 9 99 9
4:00 NW 2 N/A N/A 100.3 10 99 10
3:00 N 1 N/A N/A 100.3 10 99 10
2:00 calm N/A N/A 100.3 12 97 11
1:00 WSW 2 N/A N/A 100.4 12 98 11
0:00 SE 2 N/A N/A 100.4 11 97 10
12 June 2024
23:00 ENE 2 N/A N/A 100.4 11 97 11
22:00 S 2 N/A N/A 100.5 14 93 13
21:00 SE 9 N/A N/A 100.5 13 93 12
20:00 SE 2 N/A N/A 100.6 11 97 10
19:00 SW 2 N/A N/A 100.6 10 95 9
18:00 SW 4 N/A N/A 100.7 11 90 9
17:00 SW 5 Mostly Cloudy 16 100.7 13 77 9
16:00 SW 4 gusts 16 Mostly Cloudy 16 100.7 13 78 9
15:00 SW 3 Mostly Cloudy 24 100.7 13 83 10
14:00 SW 7 gusts 19 Mostly Cloudy 24 100.8 14 80 11
13:00 S 3 Light Rainshower 10 100.8 14 92 12
12:00 SSW 6 Fog 0.4 100.8 11 95 10
11:00 SSW 6 gusts 15 Mist 10 100.8 11 90 9
10:00 SSW 5 Mist 10 100.8 10 92 9
9:00 S 3 Cloudy 11 100.8 10 91 9
8:00 SSW 4 Mostly Cloudy 11 100.8 9 92 8
7:00 SSW 3 N/A N/A 100.8 9 92 8
6:00 S 3 N/A N/A 100.8 10 92 8
5:00 SW 2 N/A N/A 100.8 9 92 8

Zoom-in to make a selection

Map of Great Lakes - Lake Superior marine weather areas Mid Superior - 45001 East Superior - 45004 West Superior - 45006 Slate Island - 45136 Lake Of the Woods - 45148 Kenora Airport Royal Island Armstrong Airport Caribou Island Marathon Airport Pukaskwa National Park Thunder Bay Airport Welcome Island Little Flatland Island Sault Ste. Marie Airport Wawa Airport
Legend:
buoy Buoy
land station Land Station

Great Lakes - Lake Superior Area

Another Region

Features

New Predicting and Alerting Coastal Flooding Program

Find out about coastal flooding coverage, forecasts and warnings in your region

Date modified: